createdAt,value
2018-01-15T00:00:38.963Z,20.30
2018-01-15T00:03:06.530Z,18.05
2018-01-15T00:05:34.075Z,20.02
2018-01-15T00:08:01.630Z,17.00
2018-01-15T00:10:29.176Z,23.38
2018-01-15T00:12:57.496Z,20.88
2018-01-15T00:15:25.811Z,19.87
2018-01-15T00:17:53.347Z,18.20
2018-01-15T00:20:20.920Z,22.33
2018-01-15T00:22:48.475Z,16.37
2018-01-15T00:25:16.029Z,19.40
2018-01-15T00:27:43.585Z,20.80
2018-01-15T00:30:11.132Z,19.20
2018-01-15T00:32:39.435Z,17.48
2018-01-15T00:35:06.979Z,16.92
2018-01-15T00:37:35.320Z,17.83
2018-01-15T00:40:02.860Z,18.45
2018-01-15T00:42:31.163Z,18.92
2018-01-15T00:44:58.712Z,17.73
2018-01-15T00:47:26.260Z,18.55
2018-01-15T00:49:53.800Z,18.15
2018-01-15T00:52:22.108Z,20.37
2018-01-15T00:54:49.647Z,18.95
2018-01-15T00:57:17.950Z,20.75
2018-01-15T00:59:45.491Z,17.70
2018-01-15T01:02:15.731Z,18.30
2018-01-15T01:04:43.273Z,18.42
2018-01-15T01:07:11.590Z,18.58
2018-01-15T01:09:39.141Z,22.27
2018-01-15T01:12:06.684Z,18.67
2018-01-15T01:14:35.002Z,17.98
2018-01-15T01:17:02.554Z,20.05
2018-01-15T01:19:30.124Z,19.42
2018-01-15T01:21:57.667Z,23.12
2018-01-15T01:24:25.215Z,21.02
2018-01-15T01:26:52.765Z,17.27
2018-01-15T01:29:20.315Z,21.62
2018-01-15T01:31:47.865Z,19.77
2018-01-15T01:34:15.412Z,19.17
2018-01-15T01:36:42.959Z,18.23
2018-01-15T01:39:10.495Z,19.40
2018-01-15T01:41:38.804Z,20.10
2018-01-15T01:44:06.351Z,18.75
2018-01-15T01:46:34.663Z,20.92
2018-01-15T01:49:02.208Z,15.80
2018-01-15T01:51:29.743Z,17.55
2018-01-15T01:53:58.100Z,16.62
2018-01-15T01:56:25.649Z,20.67
2018-01-15T01:58:53.184Z,17.50
2018-01-15T02:01:20.723Z,16.73
2018-01-15T02:03:49.121Z,15.40
2018-01-15T02:06:16.668Z,15.23
2018-01-15T02:08:44.975Z,22.23
2018-01-15T02:11:12.519Z,18.42
2018-01-15T02:13:40.824Z,16.98
2018-01-15T02:16:08.372Z,20.12
2018-01-15T02:18:36.679Z,18.30
2018-01-15T02:21:04.219Z,17.90
2018-01-15T02:23:31.768Z,20.75
2018-01-15T02:26:00.071Z,16.55
2018-01-15T02:28:27.632Z,21.35
2018-01-15T02:30:55.183Z,20.90
2018-01-15T02:33:23.500Z,20.50
2018-01-15T02:35:51.049Z,19.75
2018-01-15T02:38:18.606Z,20.40
2018-01-15T02:40:46.193Z,19.15
2018-01-15T02:43:13.742Z,22.77
2018-01-15T02:45:41.293Z,21.00
2018-01-15T02:48:08.836Z,21.48
2018-01-15T02:50:37.147Z,23.40
2018-01-15T02:53:04.691Z,18.98
2018-01-15T02:55:32.248Z,17.62
2018-01-15T02:58:00.560Z,17.45
2018-01-15T03:00:28.103Z,19.27
2018-01-15T03:02:56.440Z,14.25
2018-01-15T03:05:23.999Z,17.12
2018-01-15T03:07:51.537Z,15.25
2018-01-15T03:10:19.075Z,14.65
2018-01-15T03:12:46.639Z,13.73
2018-01-15T03:15:14.951Z,17.12
2018-01-15T03:17:42.500Z,15.13
2018-01-15T03:20:10.103Z,16.25
2018-01-15T03:22:37.654Z,17.70
2018-01-15T03:25:05.196Z,15.13
2018-01-15T03:27:32.757Z,15.63
2018-01-15T03:30:00.302Z,15.30
2018-01-15T03:32:27.916Z,17.20
2018-01-15T03:34:55.463Z,13.52
2018-01-15T03:37:23.010Z,16.52
2018-01-15T03:39:50.551Z,15.73
2018-01-15T03:42:18.859Z,15.13
2018-01-15T03:44:46.400Z,15.60
2018-01-15T03:47:14.744Z,15.57
2018-01-15T03:49:42.280Z,14.57
2018-01-15T03:52:09.820Z,13.13
2018-01-15T03:54:37.411Z,16.15
2018-01-15T03:57:04.955Z,11.88
2018-01-15T03:59:32.491Z,17.08
2018-01-15T04:02:00.059Z,22.65
2018-01-15T04:04:28.411Z,18.12
2018-01-15T04:06:55.961Z,14.32
2018-01-15T04:09:23.500Z,15.45
2018-01-15T04:11:51.076Z,19.58
2018-01-15T04:14:18.663Z,15.27
2018-01-15T04:16:46.206Z,16.70
2018-01-15T04:19:13.756Z,15.43
2018-01-15T04:21:41.296Z,14.57
2018-01-15T04:24:09.615Z,16.20
2018-01-15T04:26:37.188Z,17.77
2018-01-15T04:29:04.734Z,18.75
2018-01-15T04:31:32.268Z,17.40
2018-01-15T04:34:00.583Z,18.87
2018-01-15T04:36:28.132Z,20.37
2018-01-15T04:38:55.684Z,19.98
2018-01-15T04:41:23.994Z,17.92
2018-01-15T04:43:51.572Z,17.80
2018-01-15T04:46:19.116Z,19.73
2018-01-15T04:48:46.663Z,19.40
2018-01-15T04:51:14.210Z,20.60
2018-01-15T04:53:42.517Z,21.25
2018-01-15T04:56:10.060Z,24.23
2018-01-15T04:58:38.378Z,18.33
2018-01-15T05:01:05.932Z,18.23
2018-01-15T05:03:33.511Z,20.33
2018-01-15T05:06:01.060Z,17.80
2018-01-15T05:08:28.627Z,16.67
2018-01-15T05:10:56.223Z,21.17
2018-01-15T05:13:23.764Z,22.13
2018-01-15T05:15:51.316Z,21.98
2018-01-15T05:18:18.859Z,27.67
2018-01-15T05:20:47.172Z,26.60
2018-01-15T05:23:14.864Z,28.58
2018-01-15T05:25:42.656Z,22.73
2018-01-15T05:28:10.208Z,23.05
2018-01-15T05:30:38.004Z,22.48
2018-01-15T05:33:06.324Z,24.58
2018-01-15T05:35:33.863Z,23.65
2018-01-15T05:38:01.419Z,19.77
2018-01-15T05:40:29.732Z,21.10
2018-01-15T05:42:57.325Z,22.48
2018-01-15T05:45:24.880Z,23.70
2018-01-15T05:47:52.428Z,27.37
2018-01-15T05:50:20.026Z,25.62
2018-01-15T05:52:47.974Z,23.17
2018-01-15T05:55:15.519Z,25.80
2018-01-15T05:57:43.064Z,22.58
2018-01-15T06:00:11.370Z,21.67
2018-01-15T06:02:38.920Z,27.20
2018-01-15T06:05:06.978Z,25.12
2018-01-15T06:07:34.531Z,25.08
2018-01-15T06:10:02.836Z,23.48
2018-01-15T06:12:30.388Z,21.73
2018-01-15T06:14:58.700Z,26.48
2018-01-15T06:17:26.244Z,24.73
2018-01-15T06:19:53.794Z,21.67
2018-01-15T06:22:22.107Z,33.65
2018-01-15T06:24:49.664Z,27.40
2018-01-15T06:27:17.203Z,41.00
2018-01-15T06:29:45.511Z,23.73
2018-01-15T06:32:13.241Z,21.65
2018-01-15T06:34:41.595Z,28.00
2018-01-15T06:37:09.144Z,26.37
2018-01-15T06:39:40.022Z,23.45
2018-01-15T06:42:07.669Z,26.50
2018-01-15T06:44:35.240Z,27.90
2018-01-15T06:47:02.817Z,24.23
2018-01-15T06:49:30.390Z,27.42
2018-01-15T06:51:58.795Z,25.02
2018-01-15T06:54:26.377Z,27.40
2018-01-15T06:56:53.948Z,26.20
2018-01-15T06:59:21.549Z,24.98
2018-01-15T07:01:49.113Z,20.80
2018-01-15T07:04:16.694Z,27.33
2018-01-15T07:06:44.262Z,23.23
2018-01-15T07:09:12.584Z,26.35
2018-01-15T07:11:40.144Z,25.85
2018-01-15T07:14:07.712Z,23.20
2018-01-15T07:16:35.276Z,20.20
2018-01-15T07:19:02.865Z,21.55
2018-01-15T07:21:30.436Z,22.42
2018-01-15T07:23:57.992Z,23.27
2018-01-15T07:26:25.555Z,21.77
2018-01-15T07:28:53.137Z,23.77
2018-01-15T07:31:20.694Z,23.33
2018-01-15T07:33:48.265Z,24.87
2018-01-15T07:36:15.829Z,26.05
2018-01-15T07:38:44.283Z,22.27
2018-01-15T07:41:12.560Z,29.80
2018-01-15T07:43:40.130Z,22.92
2018-01-15T07:46:07.694Z,24.42
2018-01-15T07:48:36.980Z,23.52
2018-01-15T07:51:05.738Z,28.25
2018-01-15T07:53:34.100Z,27.00
2018-01-15T07:56:01.675Z,23.23
2018-01-15T07:58:29.260Z,28.33
2018-01-15T08:00:57.584Z,25.02
2018-01-15T08:03:25.136Z,23.02
2018-01-15T08:05:52.692Z,23.77
2018-01-15T08:08:20.240Z,26.62
2018-01-15T08:10:47.783Z,21.90
2018-01-15T08:13:15.323Z,24.27
2018-01-15T08:15:42.887Z,24.10
2018-01-15T08:18:10.627Z,22.05
2018-01-15T08:20:38.175Z,22.02
2018-01-15T08:23:05.895Z,24.70
2018-01-15T08:25:33.677Z,19.58
2018-01-15T08:28:02.015Z,21.55
2018-01-15T08:30:30.335Z,21.02
2018-01-15T08:32:57.911Z,27.20
2018-01-15T08:35:26.229Z,20.35
2018-01-15T08:37:53.779Z,21.17
2018-01-15T08:40:21.343Z,29.02
2018-01-15T08:42:48.887Z,23.85
2018-01-15T08:45:17.200Z,23.25
2018-01-15T08:47:44.868Z,26.87
2018-01-15T08:50:12.412Z,21.25
2018-01-15T08:52:39.963Z,21.87
2018-01-15T08:55:08.277Z,19.15
2018-01-15T08:57:35.827Z,21.80
2018-01-15T09:00:03.375Z,27.73
2018-01-15T09:02:31.727Z,25.65
2018-01-15T09:04:59.276Z,22.40
2018-01-15T09:07:28.452Z,22.67
2018-01-15T09:09:56.036Z,23.33
2018-01-15T09:12:23.580Z,28.00
2018-01-15T09:14:51.169Z,24.45
2018-01-15T09:17:19.718Z,23.83
2018-01-15T09:19:47.288Z,25.65
2018-01-15T09:22:14.844Z,28.90
2018-01-15T09:24:42.403Z,20.92
2018-01-15T09:27:10.715Z,27.33
2018-01-15T09:29:38.265Z,25.25
2018-01-15T09:32:05.820Z,21.98
2018-01-15T09:34:33.388Z,22.35
2018-01-15T09:37:00.996Z,24.05
2018-01-15T09:39:28.548Z,26.10
2018-01-15T09:41:56.096Z,25.60
2018-01-15T09:44:23.643Z,25.45
2018-01-15T09:46:51.237Z,24.45
2018-01-15T09:49:18.833Z,26.02
2018-01-15T09:51:46.400Z,23.85
2018-01-15T09:54:14.763Z,22.45
2018-01-15T09:56:44.406Z,23.83
2018-01-15T09:59:13.769Z,26.35
2018-01-15T10:01:41.315Z,26.30
2018-01-15T10:04:08.892Z,24.98
2018-01-15T10:06:36.500Z,24.98
2018-01-15T10:09:04.127Z,25.20
2018-01-15T10:11:31.643Z,22.62
2018-01-15T10:13:59.955Z,24.42
2018-01-15T10:16:27.927Z,24.70
2018-01-15T10:18:56.646Z,24.52
2018-01-15T10:21:25.187Z,26.48
2018-01-15T10:23:52.738Z,27.20
2018-01-15T10:26:21.056Z,27.55
2018-01-15T10:28:48.603Z,26.02
2018-01-15T10:31:16.160Z,23.58
2018-01-15T10:33:43.706Z,27.45
2018-01-15T10:36:12.015Z,22.83
2018-01-15T10:38:40.646Z,34.20
2018-01-15T10:41:08.282Z,23.62
2018-01-15T10:43:35.867Z,25.30
2018-01-15T10:46:03.427Z,27.10
2018-01-15T10:48:30.979Z,20.62
2018-01-15T10:50:58.585Z,26.85
2018-01-15T10:53:26.153Z,27.17
2018-01-15T10:55:53.739Z,30.65
2018-01-15T10:58:21.421Z,28.15
2018-01-15T11:00:51.760Z,23.70
2018-01-15T11:03:19.314Z,30.98
2018-01-15T11:05:46.873Z,28.35
2018-01-15T11:08:14.436Z,25.83
2018-01-15T11:10:41.984Z,27.05
2018-01-15T11:13:10.312Z,26.20
2018-01-15T11:15:37.869Z,35.58
2018-01-15T11:18:07.362Z,27.73
2018-01-15T11:20:34.925Z,28.75
2018-01-15T11:23:02.466Z,28.12
2018-01-15T11:25:30.302Z,25.40
2018-01-15T11:27:57.916Z,27.40
2018-01-15T11:30:25.493Z,26.12
2018-01-15T11:32:53.049Z,29.40
2018-01-15T11:35:20.595Z,28.92
2018-01-15T11:37:49.016Z,24.80
2018-01-15T11:40:17.359Z,26.70
2018-01-15T11:42:45.680Z,23.23
2018-01-15T11:45:13.222Z,31.00
2018-01-15T11:47:40.766Z,30.20
2018-01-15T11:50:09.095Z,30.20
2018-01-15T11:52:36.640Z,31.65
2018-01-15T11:55:04.711Z,29.83
2018-01-15T11:57:33.283Z,24.12
2018-01-15T12:00:03.619Z,29.80
2018-01-15T12:02:31.205Z,30.60
2018-01-15T12:04:58.922Z,28.08
2018-01-15T12:07:27.315Z,30.77
2018-01-15T12:09:55.633Z,27.62
2018-01-15T12:12:23.652Z,27.25
2018-01-15T12:14:51.259Z,32.97
2018-01-15T12:17:19.856Z,44.78
2018-01-15T12:19:49.413Z,28.58
2018-01-15T12:22:17.117Z,30.05
2018-01-15T12:24:55.184Z,29.65
2018-01-15T12:27:22.765Z,28.15
2018-01-15T12:29:51.082Z,32.03
2018-01-15T12:32:18.628Z,37.22
2018-01-15T12:34:46.895Z,29.37
2018-01-15T12:37:15.417Z,52.92
2018-01-15T12:39:44.269Z,29.90
2018-01-15T12:42:13.364Z,31.55
2018-01-15T12:44:40.959Z,30.27
2018-01-15T12:47:08.507Z,40.47
2018-01-15T12:49:36.116Z,38.47
2018-01-15T12:52:03.658Z,32.40
2018-01-15T12:54:31.208Z,31.17
2018-01-15T12:56:58.780Z,30.00
2018-01-15T12:59:26.336Z,33.17
2018-01-15T13:01:53.884Z,35.17
2018-01-15T13:04:21.480Z,34.83
2018-01-15T13:06:55.815Z,33.58
2018-01-15T13:09:23.589Z,31.98
2018-01-15T13:11:52.043Z,33.92
2018-01-15T13:14:19.683Z,35.95
2018-01-15T13:16:47.292Z,34.08
2018-01-15T13:19:15.380Z,34.03
2018-01-15T13:21:42.941Z,39.25
2018-01-15T13:24:10.960Z,32.22
2018-01-15T13:26:39.570Z,40.50
2018-01-15T13:29:07.132Z,33.80
2018-01-15T13:31:34.756Z,40.00
2018-01-15T13:34:02.324Z,33.85
2018-01-15T13:36:29.933Z,35.47
2018-01-15T13:38:57.557Z,36.28
2018-01-15T13:41:25.196Z,33.58
2018-01-15T13:43:52.747Z,32.30
2018-01-15T13:46:20.326Z,43.03
2018-01-15T13:48:47.920Z,35.45
2018-01-15T13:51:15.475Z,44.25
2018-01-15T13:53:43.020Z,30.40
2018-01-15T13:56:10.581Z,39.58
2018-01-15T13:58:38.159Z,39.88
2018-01-15T14:01:05.746Z,35.53
2018-01-15T14:03:34.127Z,37.35
2018-01-15T14:06:01.675Z,38.65
2018-01-15T14:08:29.312Z,31.98
2018-01-15T14:10:56.856Z,36.78
2018-01-15T14:13:24.481Z,38.33
2018-01-15T14:15:52.027Z,37.72
2018-01-15T14:18:19.586Z,34.22
2018-01-15T14:20:47.152Z,34.05
2018-01-15T14:23:14.712Z,35.67
2018-01-15T14:25:42.259Z,32.88
2018-01-15T14:28:09.808Z,38.97
2018-01-15T14:30:37.356Z,37.05
2018-01-15T14:33:04.907Z,35.72
2018-01-15T14:35:32.470Z,36.83
2018-01-15T14:38:00.790Z,33.72
2018-01-15T14:40:28.347Z,38.67
2018-01-15T14:42:55.916Z,39.85
2018-01-15T14:45:23.468Z,35.90
2018-01-15T14:47:51.020Z,33.83
2018-01-15T14:50:18.607Z,38.75
2018-01-15T14:52:46.160Z,34.85
2018-01-15T14:55:13.724Z,38.72
2018-01-15T14:57:41.280Z,33.30
2018-01-15T15:00:08.826Z,34.50
2018-01-15T15:02:37.145Z,38.03
2018-01-15T15:05:04.704Z,35.58
2018-01-15T15:07:32.257Z,33.42
2018-01-15T15:10:00.572Z,35.85
2018-01-15T15:12:28.139Z,39.63
2018-01-15T15:14:55.704Z,36.50
2018-01-15T15:17:23.249Z,34.97
2018-01-15T15:19:50.815Z,39.30
2018-01-15T15:22:18.373Z,36.35
2018-01-15T15:24:45.917Z,32.50
2018-01-15T15:27:14.232Z,46.60
2018-01-15T15:29:41.780Z,38.45
2018-01-15T15:32:09.328Z,41.05
2018-01-15T15:34:37.639Z,37.40
2018-01-15T15:37:05.188Z,41.50
2018-01-15T15:39:32.779Z,37.70
2018-01-15T15:42:01.236Z,37.13
2018-01-15T15:44:28.784Z,39.20
2018-01-15T15:46:57.100Z,40.42
2018-01-15T15:49:24.656Z,43.03
2018-01-15T15:51:53.135Z,39.10
2018-01-15T15:54:21.908Z,41.17
2018-01-15T15:56:50.228Z,41.00
2018-01-15T15:59:17.872Z,44.05
2018-01-15T16:01:47.381Z,36.30
2018-01-15T16:04:14.935Z,39.58
2018-01-15T16:06:43.440Z,30.88
2018-01-15T16:09:11.022Z,43.67
2018-01-15T16:11:38.573Z,45.40
2018-01-15T16:14:06.124Z,43.35
2018-01-15T16:16:33.688Z,39.40
2018-01-15T16:19:01.244Z,40.30
2018-01-15T16:21:35.563Z,39.35
2018-01-15T16:24:03.127Z,37.72
2018-01-15T16:26:31.578Z,36.35
2018-01-15T16:28:59.127Z,44.33
2018-01-15T16:31:26.676Z,37.00
2018-01-15T16:33:54.232Z,38.33
2018-01-15T16:36:21.785Z,47.53
2018-01-15T16:38:49.369Z,45.35
2018-01-15T16:41:16.915Z,45.38
2018-01-15T16:43:45.262Z,38.95
2018-01-15T16:46:13.579Z,39.17
2018-01-15T16:48:41.145Z,37.50
2018-01-15T16:51:08.700Z,41.22
2018-01-15T16:53:36.305Z,41.08
2018-01-15T16:56:03.860Z,38.72
2018-01-15T16:58:31.408Z,36.70
2018-01-15T17:00:58.967Z,43.13
2018-01-15T17:03:26.551Z,41.83
2018-01-15T17:05:56.018Z,35.83
2018-01-15T17:08:23.564Z,37.17
2018-01-15T17:10:51.874Z,42.05
2018-01-15T17:13:19.423Z,35.25
2018-01-15T17:15:46.990Z,35.25
2018-01-15T17:18:14.586Z,32.38
2018-01-15T17:20:42.136Z,41.67
2018-01-15T17:23:09.792Z,38.28
2018-01-15T17:25:37.339Z,35.90
2018-01-15T17:28:05.646Z,37.47
2018-01-15T17:30:33.200Z,37.92
2018-01-15T17:33:00.747Z,41.37
2018-01-15T17:35:28.303Z,38.15
2018-01-15T17:37:56.622Z,35.03
2018-01-15T17:40:24.200Z,36.83
2018-01-15T17:42:51.752Z,36.55
2018-01-15T17:45:19.296Z,34.22
2018-01-15T17:47:46.849Z,35.83
2018-01-15T17:50:15.163Z,31.60
2018-01-15T17:52:42.707Z,33.67
2018-01-15T17:55:10.264Z,35.50
2018-01-15T17:57:37.808Z,40.30
2018-01-15T18:00:05.375Z,37.10
2018-01-15T18:02:32.944Z,32.30
2018-01-15T18:05:01.263Z,36.00
2018-01-15T18:07:28.819Z,37.00
2018-01-15T18:09:56.371Z,33.80
2018-01-15T18:12:23.932Z,40.45
2018-01-15T18:14:51.479Z,37.47
2018-01-15T18:17:19.032Z,34.65
2018-01-15T18:19:46.584Z,35.08
2018-01-15T18:22:14.132Z,38.85
2018-01-15T18:24:41.693Z,33.97
2018-01-15T18:27:09.278Z,30.77
2018-01-15T18:29:36.832Z,31.92
2018-01-15T18:32:04.381Z,35.65
2018-01-15T18:34:31.933Z,41.15
2018-01-15T18:36:59.488Z,33.90
2018-01-15T18:39:27.071Z,36.95
2018-01-15T18:41:54.630Z,38.03
2018-01-15T18:44:22.206Z,41.63
2018-01-15T18:46:49.785Z,40.47
2018-01-15T18:49:20.803Z,40.17
2018-01-15T18:51:48.357Z,38.03
2018-01-15T18:54:16.752Z,37.05
2018-01-15T18:56:44.327Z,38.30
2018-01-15T18:59:11.904Z,31.05
2018-01-15T19:01:39.466Z,37.00
2018-01-15T19:04:07.042Z,35.20
2018-01-15T19:06:34.605Z,36.50
2018-01-15T19:09:02.201Z,32.10
2018-01-15T19:11:29.781Z,30.52
2018-01-15T19:13:57.362Z,50.25
2018-01-15T19:16:24.911Z,32.13
2018-01-15T19:18:52.456Z,24.40
2018-01-15T19:21:20.011Z,31.08
2018-01-15T19:23:47.561Z,27.23
2018-01-15T19:26:15.155Z,29.33
2018-01-15T19:28:42.731Z,29.90
2018-01-15T19:31:10.279Z,28.27
2018-01-15T19:33:37.856Z,31.02
2018-01-15T19:36:11.139Z,28.27
2018-01-15T19:38:39.454Z,32.28
2018-01-15T19:41:10.274Z,29.10
2018-01-15T19:46:46.009Z,30.42
2018-01-15T19:49:19.272Z,26.05
2018-01-15T19:51:52.422Z,28.80
2018-01-15T19:54:25.628Z,29.40
2018-01-15T19:56:58.817Z,33.67
2018-01-15T19:59:31.961Z,27.67
2018-01-15T20:02:05.799Z,29.85
2018-01-15T20:04:39.054Z,27.50
2018-01-15T20:07:12.296Z,28.65
2018-01-15T20:09:45.481Z,25.20
2018-01-15T20:12:13.081Z,21.80
2018-01-15T20:14:40.735Z,24.50
2018-01-15T20:17:08.304Z,30.95
2018-01-15T20:19:35.923Z,19.75
2018-01-15T20:22:03.503Z,23.67
2018-01-15T20:24:31.086Z,21.65
2018-01-15T20:26:58.669Z,26.30
2018-01-15T20:29:26.245Z,19.87
2018-01-15T20:31:53.809Z,23.80
2018-01-15T20:34:21.395Z,23.45
2018-01-15T20:36:48.956Z,23.15
2018-01-15T20:39:17.302Z,24.40
2018-01-15T20:41:44.844Z,23.60
2018-01-15T20:44:12.388Z,26.90
2018-01-15T20:46:39.932Z,26.00
2018-01-15T20:49:08.247Z,23.45
2018-01-15T20:51:35.846Z,25.15
2018-01-15T20:54:03.388Z,21.27
2018-01-15T20:56:30.933Z,32.22
2018-01-15T20:58:58.475Z,22.70
2018-01-15T21:01:26.027Z,25.05
2018-01-15T21:03:54.345Z,21.77
2018-01-15T21:06:21.923Z,25.52
2018-01-15T21:08:49.476Z,23.02
2018-01-15T21:11:17.071Z,23.92
2018-01-15T21:13:44.614Z,18.92
2018-01-15T21:16:12.163Z,20.90
2018-01-15T21:18:39.704Z,24.73
2018-01-15T21:21:08.012Z,21.55
2018-01-15T21:23:35.560Z,22.42
2018-01-15T21:26:03.108Z,20.00
2018-01-15T21:28:30.661Z,18.17
2018-01-15T21:30:58.199Z,29.75
2018-01-15T21:33:25.740Z,18.45
2018-01-15T21:36:00.411Z,14.93
2018-01-15T21:38:27.952Z,16.15
2018-01-15T21:40:55.496Z,20.45
2018-01-15T21:43:23.045Z,17.75
2018-01-15T21:45:50.598Z,21.50
2018-01-15T21:48:18.144Z,14.02
2018-01-15T21:50:46.456Z,15.82
2018-01-15T21:53:13.994Z,15.50
2018-01-15T21:55:41.531Z,19.55
2018-01-15T21:58:09.072Z,13.98
2018-01-15T22:00:36.623Z,16.17
2018-01-15T22:03:04.176Z,14.13
2018-01-15T22:05:31.768Z,10.85
2018-01-15T22:07:59.308Z,14.05
2018-01-15T22:10:26.848Z,16.35
2018-01-15T22:12:54.388Z,18.23
2018-01-15T22:15:21.931Z,13.75
2018-01-15T22:17:49.474Z,17.92
2018-01-15T22:20:17.022Z,19.85
2018-01-15T22:22:44.560Z,13.25
2018-01-15T22:25:12.106Z,17.23
2018-01-15T22:27:39.644Z,17.85
2018-01-15T22:30:07.231Z,18.40
2018-01-15T22:32:34.823Z,15.63
2018-01-15T22:35:02.425Z,22.17
2018-01-15T22:37:29.963Z,19.42
2018-01-15T22:39:57.509Z,17.45
2018-01-15T22:42:25.824Z,16.70
2018-01-15T22:44:53.359Z,19.15
2018-01-15T22:47:20.898Z,17.12
2018-01-15T22:49:48.444Z,19.35
2018-01-15T22:52:15.983Z,18.50
2018-01-15T22:54:43.539Z,17.37
2018-01-15T22:57:11.079Z,21.23
2018-01-15T22:59:38.640Z,17.83
2018-01-15T23:02:06.963Z,17.62
2018-01-15T23:04:34.504Z,21.73
2018-01-15T23:07:02.068Z,18.37
2018-01-15T23:09:33.112Z,21.75
2018-01-15T23:12:00.652Z,25.40
2018-01-15T23:14:28.960Z,18.48
2018-01-15T23:16:56.503Z,19.35
2018-01-15T23:19:24.050Z,21.85
2018-01-15T23:21:51.592Z,20.77
2018-01-15T23:24:19.135Z,20.00
2018-01-15T23:26:46.678Z,20.20
2018-01-15T23:29:14.222Z,21.40
2018-01-15T23:31:41.799Z,20.48
2018-01-15T23:34:09.379Z,24.25
2018-01-15T23:36:36.936Z,20.73
2018-01-15T23:39:04.479Z,20.37
2018-01-15T23:41:32.025Z,19.60
2018-01-15T23:44:00.335Z,19.92
2018-01-15T23:46:27.883Z,23.08
2018-01-15T23:48:55.426Z,23.83
2018-01-15T23:51:22.968Z,20.62
2018-01-15T23:53:50.507Z,28.87
2018-01-15T23:56:18.051Z,27.77
2018-01-15T23:58:45.608Z,25.60
